Terminal Aerodrome Forecast
Issued by NWS

Home | Current Version | Previous Version | Text Only | Print | Product List | Glossary On
Versions: 1 2 3 4 5 6 7 8 9 10 11 12 13 14 15 16 17 18
000
FTUS45 KABQ 192300
TAFLVS
TAF
KLVS 192328Z 2000/2024 21010KT P6SM VCSH BKN100
     FM200200 18010KT P6SM SCT100
     FM200500 18005KT P6SM FEW015
     FM201100 03005KT P6SM VCFG SCT007 BKN025
     FM201400 03005KT P6SM FEW025
     FM201900 09015G25KT P6SM SKC=

USA.gov is the U.S. government's official web portal to all federal, state and local government web resources and services.